sensor_id;sensor_type;location;lat;lon;timestamp;P1;durP1;ratioP1;P2;durP2;ratioP2
52848;SDS011;38714;53.180;5.812;2024-03-22T00:01:58;23.33;;;11.95;;
52848;SDS011;38714;53.180;5.812;2024-03-22T00:04:24;20.20;;;12.32;;
52848;SDS011;38714;53.180;5.812;2024-03-22T00:06:50;28.15;;;12.30;;
52848;SDS011;38714;53.180;5.812;2024-03-22T00:09:16;21.25;;;12.10;;
52848;SDS011;38714;53.180;5.812;2024-03-22T00:11:42;22.58;;;11.93;;
52848;SDS011;38714;53.180;5.812;2024-03-22T00:14:09;27.13;;;13.40;;
52848;SDS011;38714;53.180;5.812;2024-03-22T00:16:35;24.50;;;12.57;;
52848;SDS011;38714;53.180;5.812;2024-03-22T00:19:01;26.35;;;12.27;;
52848;SDS011;38714;53.180;5.812;2024-03-22T00:21:27;31.27;;;12.38;;
52848;SDS011;38714;53.180;5.812;2024-03-22T00:23:53;27.17;;;12.32;;
52848;SDS011;38714;53.180;5.812;2024-03-22T00:26:19;26.73;;;13.65;;
52848;SDS011;38714;53.180;5.812;2024-03-22T00:28:44;31.70;;;12.52;;
52848;SDS011;38714;53.180;5.812;2024-03-22T00:31:10;25.60;;;14.73;;
52848;SDS011;38714;53.180;5.812;2024-03-22T00:33:35;22.15;;;11.90;;
52848;SDS011;38714;53.180;5.812;2024-03-22T00:36:01;24.13;;;13.43;;
52848;SDS011;38714;53.180;5.812;2024-03-22T00:38:27;29.88;;;13.93;;
52848;SDS011;38714;53.180;5.812;2024-03-22T00:40:53;26.55;;;12.82;;
52848;SDS011;38714;53.180;5.812;2024-03-22T00:43:19;31.08;;;12.73;;
52848;SDS011;38714;53.180;5.812;2024-03-22T00:45:45;30.80;;;13.60;;
52848;SDS011;38714;53.180;5.812;2024-03-22T00:48:11;28.35;;;14.82;;
52848;SDS011;38714;53.180;5.812;2024-03-22T00:50:36;30.60;;;14.82;;
52848;SDS011;38714;53.180;5.812;2024-03-22T00:53:02;31.52;;;15.73;;
52848;SDS011;38714;53.180;5.812;2024-03-22T00:55:28;27.88;;;14.00;;
52848;SDS011;38714;53.180;5.812;2024-03-22T00:57:54;25.67;;;13.30;;
52848;SDS011;38714;53.180;5.812;2024-03-22T01:00:20;28.33;;;14.23;;
52848;SDS011;38714;53.180;5.812;2024-03-22T01:02:46;28.75;;;15.88;;
52848;SDS011;38714;53.180;5.812;2024-03-22T01:05:11;28.55;;;13.30;;
52848;SDS011;38714;53.180;5.812;2024-03-22T01:07:37;34.90;;;16.95;;
52848;SDS011;38714;53.180;5.812;2024-03-22T01:10:03;32.83;;;16.13;;
52848;SDS011;38714;53.180;5.812;2024-03-22T01:12:29;32.75;;;14.60;;
52848;SDS011;38714;53.180;5.812;2024-03-22T01:14:56;35.40;;;15.20;;
52848;SDS011;38714;53.180;5.812;2024-03-22T01:17:22;35.95;;;14.07;;
52848;SDS011;38714;53.180;5.812;2024-03-22T01:19:47;31.40;;;14.93;;
52848;SDS011;38714;53.180;5.812;2024-03-22T01:22:13;36.30;;;16.60;;
52848;SDS011;38714;53.180;5.812;2024-03-22T01:24:39;33.10;;;13.82;;
52848;SDS011;38714;53.180;5.812;2024-03-22T01:27:04;33.25;;;18.40;;
52848;SDS011;38714;53.180;5.812;2024-03-22T01:29:30;33.20;;;15.10;;
52848;SDS011;38714;53.180;5.812;2024-03-22T01:31:57;32.15;;;15.30;;
52848;SDS011;38714;53.180;5.812;2024-03-22T01:34:23;31.92;;;16.77;;
52848;SDS011;38714;53.180;5.812;2024-03-22T01:36:49;28.60;;;15.95;;
52848;SDS011;38714;53.180;5.812;2024-03-22T01:39:16;37.35;;;16.20;;
52848;SDS011;38714;53.180;5.812;2024-03-22T01:41:42;36.00;;;14.32;;
52848;SDS011;38714;53.180;5.812;2024-03-22T01:44:08;29.10;;;16.13;;
52848;SDS011;38714;53.180;5.812;2024-03-22T01:46:34;34.15;;;17.38;;
52848;SDS011;38714;53.180;5.812;2024-03-22T01:49:00;38.63;;;15.88;;
52848;SDS011;38714;53.180;5.812;2024-03-22T01:51:26;31.52;;;14.70;;
52848;SDS011;38714;53.180;5.812;2024-03-22T01:53:52;34.20;;;14.60;;
52848;SDS011;38714;53.180;5.812;2024-03-22T01:56:18;28.42;;;13.35;;
52848;SDS011;38714;53.180;5.812;2024-03-22T01:58:44;32.13;;;14.13;;
52848;SDS011;38714;53.180;5.812;2024-03-22T02:01:10;39.00;;;16.55;;
52848;SDS011;38714;53.180;5.812;2024-03-22T02:03:36;30.55;;;14.10;;
52848;SDS011;38714;53.180;5.812;2024-03-22T02:06:01;33.85;;;15.95;;
52848;SDS011;38714;53.180;5.812;2024-03-22T02:08:27;32.60;;;15.45;;
52848;SDS011;38714;53.180;5.812;2024-03-22T02:10:53;25.23;;;14.43;;
52848;SDS011;38714;53.180;5.812;2024-03-22T02:13:19;27.40;;;13.05;;
52848;SDS011;38714;53.180;5.812;2024-03-22T02:15:44;39.80;;;14.05;;
52848;SDS011;38714;53.180;5.812;2024-03-22T02:18:10;53.47;;;17.90;;
52848;SDS011;38714;53.180;5.812;2024-03-22T02:20:35;26.42;;;13.63;;
52848;SDS011;38714;53.180;5.812;2024-03-22T02:23:01;33.38;;;14.25;;
52848;SDS011;38714;53.180;5.812;2024-03-22T02:25:26;24.58;;;14.85;;
52848;SDS011;38714;53.180;5.812;2024-03-22T02:27:52;30.33;;;15.27;;
52848;SDS011;38714;53.180;5.812;2024-03-22T02:30:17;33.75;;;12.27;;
52848;SDS011;38714;53.180;5.812;2024-03-22T02:32:43;34.05;;;16.13;;
52848;SDS011;38714;53.180;5.812;2024-03-22T02:35:09;28.50;;;13.35;;
52848;SDS011;38714;53.180;5.812;2024-03-22T02:37:35;29.00;;;15.20;;
52848;SDS011;38714;53.180;5.812;2024-03-22T02:40:00;31.83;;;15.40;;
52848;SDS011;38714;53.180;5.812;2024-03-22T02:42:26;26.48;;;13.07;;
52848;SDS011;38714;53.180;5.812;2024-03-22T02:44:52;29.13;;;13.75;;
52848;SDS011;38714;53.180;5.812;2024-03-22T02:47:18;31.63;;;14.57;;
52848;SDS011;38714;53.180;5.812;2024-03-22T02:49:43;24.88;;;11.90;;
52848;SDS011;38714;53.180;5.812;2024-03-22T02:52:09;37.33;;;13.30;;
52848;SDS011;38714;53.180;5.812;2024-03-22T02:54:35;37.38;;;16.40;;
52848;SDS011;38714;53.180;5.812;2024-03-22T02:57:00;24.70;;;10.98;;
52848;SDS011;38714;53.180;5.812;2024-03-22T02:59:27;34.35;;;14.23;;
52848;SDS011;38714;53.180;5.812;2024-03-22T03:01:52;35.67;;;13.10;;
52848;SDS011;38714;53.180;5.812;2024-03-22T03:04:18;28.27;;;14.13;;
52848;SDS011;38714;53.180;5.812;2024-03-22T03:06:44;28.83;;;12.27;;
52848;SDS011;38714;53.180;5.812;2024-03-22T03:09:10;28.23;;;12.38;;
52848;SDS011;38714;53.180;5.812;2024-03-22T03:11:37;26.02;;;12.95;;
52848;SDS011;38714;53.180;5.812;2024-03-22T03:14:04;33.15;;;13.00;;
52848;SDS011;38714;53.180;5.812;2024-03-22T03:16:30;25.92;;;13.32;;
52848;SDS011;38714;53.180;5.812;2024-03-22T03:18:55;31.15;;;13.55;;
52848;SDS011;38714;53.180;5.812;2024-03-22T03:21:21;32.83;;;13.05;;
52848;SDS011;38714;53.180;5.812;2024-03-22T03:23:46;24.50;;;12.65;;
52848;SDS011;38714;53.180;5.812;2024-03-22T03:26:12;36.53;;;16.42;;
52848;SDS011;38714;53.180;5.812;2024-03-22T03:28:39;22.05;;;11.30;;
52848;SDS011;38714;53.180;5.812;2024-03-22T03:31:04;21.42;;;11.18;;
52848;SDS011;38714;53.180;5.812;2024-03-22T03:33:30;31.02;;;13.40;;
52848;SDS011;38714;53.180;5.812;2024-03-22T03:35:56;29.90;;;13.45;;
52848;SDS011;38714;53.180;5.812;2024-03-22T03:38:22;25.83;;;13.73;;
52848;SDS011;38714;53.180;5.812;2024-03-22T03:40:47;29.63;;;12.70;;
52848;SDS011;38714;53.180;5.812;2024-03-22T03:43:13;28.40;;;13.68;;
52848;SDS011;38714;53.180;5.812;2024-03-22T03:45:39;24.73;;;12.30;;
52848;SDS011;38714;53.180;5.812;2024-03-22T03:48:05;26.75;;;12.32;;
52848;SDS011;38714;53.180;5.812;2024-03-22T03:50:30;25.40;;;11.55;;
52848;SDS011;38714;53.180;5.812;2024-03-22T03:52:56;26.88;;;13.13;;
52848;SDS011;38714;53.180;5.812;2024-03-22T03:55:22;22.88;;;9.90;;
52848;SDS011;38714;53.180;5.812;2024-03-22T03:57:49;22.10;;;11.93;;
52848;SDS011;38714;53.180;5.812;2024-03-22T04:00:15;24.95;;;11.43;;
52848;SDS011;38714;53.180;5.812;2024-03-22T04:02:41;27.65;;;14.30;;
52848;SDS011;38714;53.180;5.812;2024-03-22T04:05:06;24.65;;;11.20;;
52848;SDS011;38714;53.180;5.812;2024-03-22T04:07:32;29.08;;;11.43;;
52848;SDS011;38714;53.180;5.812;2024-03-22T04:09:58;28.30;;;12.10;;
52848;SDS011;38714;53.180;5.812;2024-03-22T04:12:25;30.80;;;12.35;;
52848;SDS011;38714;53.180;5.812;2024-03-22T04:14:51;27.13;;;12.60;;
52848;SDS011;38714;53.180;5.812;2024-03-22T04:17:18;29.77;;;12.52;;
52848;SDS011;38714;53.180;5.812;2024-03-22T04:19:43;27.67;;;11.95;;
52848;SDS011;38714;53.180;5.812;2024-03-22T04:22:09;24.10;;;12.13;;
52848;SDS011;38714;53.180;5.812;2024-03-22T04:24:35;21.40;;;10.63;;
52848;SDS011;38714;53.180;5.812;2024-03-22T04:27:00;27.63;;;10.60;;
52848;SDS011;38714;53.180;5.812;2024-03-22T04:29:26;22.85;;;12.30;;
52848;SDS011;38714;53.180;5.812;2024-03-22T04:31:51;24.73;;;12.45;;
52848;SDS011;38714;53.180;5.812;2024-03-22T04:34:17;22.15;;;9.98;;
52848;SDS011;38714;53.180;5.812;2024-03-22T04:36:42;24.77;;;11.15;;
52848;SDS011;38714;53.180;5.812;2024-03-22T04:39:08;21.45;;;10.25;;
52848;SDS011;38714;53.180;5.812;2024-03-22T04:41:34;18.15;;;8.68;;
52848;SDS011;38714;53.180;5.812;2024-03-22T04:44:00;16.80;;;9.45;;
52848;SDS011;38714;53.180;5.812;2024-03-22T04:46:26;18.15;;;8.98;;
52848;SDS011;38714;53.180;5.812;2024-03-22T04:48:51;20.10;;;9.45;;
52848;SDS011;38714;53.180;5.812;2024-03-22T04:51:17;22.40;;;9.70;;
52848;SDS011;38714;53.180;5.812;2024-03-22T04:53:42;18.55;;;9.93;;
52848;SDS011;38714;53.180;5.812;2024-03-22T04:56:09;23.10;;;9.20;;
52848;SDS011;38714;53.180;5.812;2024-03-22T04:58:34;14.18;;;8.38;;
52848;SDS011;38714;53.180;5.812;2024-03-22T05:01:00;19.92;;;7.55;;
52848;SDS011;38714;53.180;5.812;2024-03-22T05:03:26;20.48;;;8.35;;
52848;SDS011;38714;53.180;5.812;2024-03-22T05:05:51;14.15;;;6.78;;
52848;SDS011;38714;53.180;5.812;2024-03-22T05:08:17;17.88;;;7.18;;
52848;SDS011;38714;53.180;5.812;2024-03-22T05:10:43;15.88;;;7.43;;
52848;SDS011;38714;53.180;5.812;2024-03-22T05:13:08;15.98;;;6.85;;
52848;SDS011;38714;53.180;5.812;2024-03-22T05:15:34;21.15;;;6.82;;
52848;SDS011;38714;53.180;5.812;2024-03-22T05:17:59;15.75;;;7.15;;
52848;SDS011;38714;53.180;5.812;2024-03-22T05:20:25;15.70;;;7.55;;
52848;SDS011;38714;53.180;5.812;2024-03-22T05:22:51;17.95;;;8.25;;
52848;SDS011;38714;53.180;5.812;2024-03-22T05:25:17;17.15;;;8.15;;
52848;SDS011;38714;53.180;5.812;2024-03-22T05:27:42;20.90;;;8.45;;
52848;SDS011;38714;53.180;5.812;2024-03-22T05:30:09;17.73;;;7.45;;
52848;SDS011;38714;53.180;5.812;2024-03-22T05:32:35;15.52;;;6.47;;
52848;SDS011;38714;53.180;5.812;2024-03-22T05:35:01;13.70;;;7.30;;
52848;SDS011;38714;53.180;5.812;2024-03-22T05:37:26;12.40;;;6.70;;
52848;SDS011;38714;53.180;5.812;2024-03-22T05:39:52;14.75;;;5.88;;
52848;SDS011;38714;53.180;5.812;2024-03-22T05:42:18;11.30;;;5.75;;
52848;SDS011;38714;53.180;5.812;2024-03-22T05:44:47;13.40;;;5.53;;
52848;SDS011;38714;53.180;5.812;2024-03-22T05:47:13;13.70;;;5.80;;
52848;SDS011;38714;53.180;5.812;2024-03-22T05:49:38;14.07;;;5.97;;
52848;SDS011;38714;53.180;5.812;2024-03-22T05:52:04;12.20;;;5.53;;
52848;SDS011;38714;53.180;5.812;2024-03-22T05:54:30;10.23;;;5.63;;
52848;SDS011;38714;53.180;5.812;2024-03-22T05:56:55;8.88;;;5.00;;
52848;SDS011;38714;53.180;5.812;2024-03-22T05:59:21;11.07;;;5.55;;
52848;SDS011;38714;53.180;5.812;2024-03-22T06:01:47;13.77;;;5.22;;
52848;SDS011;38714;53.180;5.812;2024-03-22T06:04:12;15.93;;;6.85;;
52848;SDS011;38714;53.180;5.812;2024-03-22T06:06:38;16.23;;;6.78;;
52848;SDS011;38714;53.180;5.812;2024-03-22T06:09:04;17.17;;;5.50;;
52848;SDS011;38714;53.180;5.812;2024-03-22T06:11:33;11.88;;;5.65;;
52848;SDS011;38714;53.180;5.812;2024-03-22T06:13:59;10.23;;;4.35;;
52848;SDS011;38714;53.180;5.812;2024-03-22T06:16:25;13.15;;;5.60;;
52848;SDS011;38714;53.180;5.812;2024-03-22T06:18:51;11.30;;;5.30;;
52848;SDS011;38714;53.180;5.812;2024-03-22T06:21:16;9.00;;;4.30;;
52848;SDS011;38714;53.180;5.812;2024-03-22T06:23:48;17.10;;;6.93;;
52848;SDS011;38714;53.180;5.812;2024-03-22T06:26:14;15.82;;;6.43;;
52848;SDS011;38714;53.180;5.812;2024-03-22T06:28:40;11.52;;;5.68;;
52848;SDS011;38714;53.180;5.812;2024-03-22T06:31:05;15.52;;;5.40;;
52848;SDS011;38714;53.180;5.812;2024-03-22T06:33:31;18.45;;;7.60;;
52848;SDS011;38714;53.180;5.812;2024-03-22T06:35:57;12.15;;;5.95;;
52848;SDS011;38714;53.180;5.812;2024-03-22T06:38:22;11.50;;;4.70;;
52848;SDS011;38714;53.180;5.812;2024-03-22T06:40:48;11.23;;;5.57;;
52848;SDS011;38714;53.180;5.812;2024-03-22T06:43:13;12.93;;;6.65;;
52848;SDS011;38714;53.180;5.812;2024-03-22T06:45:39;12.00;;;5.93;;
52848;SDS011;38714;53.180;5.812;2024-03-22T06:48:04;11.40;;;5.75;;
52848;SDS011;38714;53.180;5.812;2024-03-22T06:50:30;10.70;;;6.25;;
52848;SDS011;38714;53.180;5.812;2024-03-22T06:52:56;14.07;;;6.35;;
52848;SDS011;38714;53.180;5.812;2024-03-22T06:55:21;17.98;;;6.57;;
52848;SDS011;38714;53.180;5.812;2024-03-22T06:57:47;14.57;;;6.35;;
52848;SDS011;38714;53.180;5.812;2024-03-22T07:00:14;17.10;;;6.03;;
52848;SDS011;38714;53.180;5.812;2024-03-22T07:02:41;22.38;;;7.57;;
52848;SDS011;38714;53.180;5.812;2024-03-22T07:05:07;10.82;;;6.90;;
52848;SDS011;38714;53.180;5.812;2024-03-22T07:07:34;16.23;;;7.07;;
52848;SDS011;38714;53.180;5.812;2024-03-22T07:10:00;17.17;;;6.63;;
52848;SDS011;38714;53.180;5.812;2024-03-22T07:12:25;21.73;;;9.73;;
52848;SDS011;38714;53.180;5.812;2024-03-22T07:14:51;14.13;;;6.30;;
52848;SDS011;38714;53.180;5.812;2024-03-22T07:17:16;13.73;;;5.78;;
52848;SDS011;38714;53.180;5.812;2024-03-22T07:19:42;15.65;;;6.30;;
52848;SDS011;38714;53.180;5.812;2024-03-22T07:22:08;18.05;;;6.55;;
52848;SDS011;38714;53.180;5.812;2024-03-22T07:24:33;11.10;;;6.47;;
52848;SDS011;38714;53.180;5.812;2024-03-22T07:26:59;14.98;;;7.32;;
52848;SDS011;38714;53.180;5.812;2024-03-22T07:29:25;12.52;;;6.28;;
52848;SDS011;38714;53.180;5.812;2024-03-22T07:31:50;17.90;;;6.60;;
52848;SDS011;38714;53.180;5.812;2024-03-22T07:34:16;14.13;;;6.25;;
52848;SDS011;38714;53.180;5.812;2024-03-22T07:36:41;11.23;;;6.50;;
52848;SDS011;38714;53.180;5.812;2024-03-22T07:39:07;13.95;;;5.35;;
52848;SDS011;38714;53.180;5.812;2024-03-22T07:41:33;14.27;;;7.68;;
52848;SDS011;38714;53.180;5.812;2024-03-22T07:43:59;16.13;;;7.65;;
52848;SDS011;38714;53.180;5.812;2024-03-22T07:46:25;13.35;;;5.85;;
52848;SDS011;38714;53.180;5.812;2024-03-22T07:48:51;14.35;;;6.00;;
52848;SDS011;38714;53.180;5.812;2024-03-22T07:51:17;12.25;;;5.10;;
52848;SDS011;38714;53.180;5.812;2024-03-22T07:53:43;12.35;;;7.63;;
52848;SDS011;38714;53.180;5.812;2024-03-22T07:56:08;15.00;;;5.10;;
52848;SDS011;38714;53.180;5.812;2024-03-22T07:58:34;10.80;;;5.95;;
52848;SDS011;38714;53.180;5.812;2024-03-22T08:01:00;10.20;;;5.43;;
52848;SDS011;38714;53.180;5.812;2024-03-22T08:03:25;12.48;;;5.28;;
52848;SDS011;38714;53.180;5.812;2024-03-22T08:05:51;12.35;;;5.07;;
52848;SDS011;38714;53.180;5.812;2024-03-22T08:08:17;15.07;;;5.88;;
52848;SDS011;38714;53.180;5.812;2024-03-22T08:10:42;10.93;;;5.30;;
52848;SDS011;38714;53.180;5.812;2024-03-22T08:13:08;13.30;;;5.93;;
52848;SDS011;38714;53.180;5.812;2024-03-22T08:15:34;8.68;;;4.45;;
52848;SDS011;38714;53.180;5.812;2024-03-22T08:18:00;10.85;;;4.43;;
52848;SDS011;38714;53.180;5.812;2024-03-22T08:20:26;11.02;;;5.22;;
52848;SDS011;38714;53.180;5.812;2024-03-22T08:22:52;11.88;;;4.55;;
52848;SDS011;38714;53.180;5.812;2024-03-22T08:25:17;11.93;;;4.50;;
52848;SDS011;38714;53.180;5.812;2024-03-22T08:27:45;8.25;;;4.28;;
52848;SDS011;38714;53.180;5.812;2024-03-22T08:30:11;12.30;;;5.65;;
52848;SDS011;38714;53.180;5.812;2024-03-22T08:32:37;10.90;;;5.40;;
52848;SDS011;38714;53.180;5.812;2024-03-22T08:35:03;8.75;;;4.50;;
52848;SDS011;38714;53.180;5.812;2024-03-22T08:37:29;9.52;;;4.53;;
52848;SDS011;38714;53.180;5.812;2024-03-22T08:39:55;10.43;;;4.70;;
52848;SDS011;38714;53.180;5.812;2024-03-22T08:42:21;16.08;;;7.43;;
52848;SDS011;38714;53.180;5.812;2024-03-22T08:44:46;13.98;;;7.53;;
52848;SDS011;38714;53.180;5.812;2024-03-22T08:47:12;12.48;;;5.78;;
52848;SDS011;38714;53.180;5.812;2024-03-22T08:49:38;11.30;;;5.53;;
52848;SDS011;38714;53.180;5.812;2024-03-22T08:52:04;11.50;;;4.57;;
52848;SDS011;38714;53.180;5.812;2024-03-22T08:54:29;10.63;;;4.75;;
52848;SDS011;38714;53.180;5.812;2024-03-22T08:56:55;8.13;;;5.20;;
52848;SDS011;38714;53.180;5.812;2024-03-22T08:59:21;10.07;;;4.60;;
52848;SDS011;38714;53.180;5.812;2024-03-22T09:01:48;13.60;;;4.72;;
52848;SDS011;38714;53.180;5.812;2024-03-22T09:04:13;8.75;;;5.20;;
52848;SDS011;38714;53.180;5.812;2024-03-22T09:06:40;11.63;;;4.63;;
52848;SDS011;38714;53.180;5.812;2024-03-22T09:09:06;13.45;;;5.30;;
52848;SDS011;38714;53.180;5.812;2024-03-22T09:11:33;9.20;;;4.35;;
52848;SDS011;38714;53.180;5.812;2024-03-22T09:13:58;11.07;;;4.78;;
52848;SDS011;38714;53.180;5.812;2024-03-22T09:16:24;7.72;;;4.00;;
52848;SDS011;38714;53.180;5.812;2024-03-22T09:18:49;6.00;;;3.42;;
52848;SDS011;38714;53.180;5.812;2024-03-22T09:21:15;5.18;;;2.83;;
52848;SDS011;38714;53.180;5.812;2024-03-22T09:23:41;6.30;;;3.33;;
52848;SDS011;38714;53.180;5.812;2024-03-22T09:26:07;6.72;;;4.03;;
52848;SDS011;38714;53.180;5.812;2024-03-22T09:28:32;5.88;;;3.15;;
52848;SDS011;38714;53.180;5.812;2024-03-22T09:31:02;8.45;;;4.47;;
52848;SDS011;38714;53.180;5.812;2024-03-22T09:33:34;7.10;;;3.20;;
52848;SDS011;38714;53.180;5.812;2024-03-22T09:36:01;7.88;;;4.05;;
52848;SDS011;38714;53.180;5.812;2024-03-22T09:38:27;6.50;;;3.25;;
52848;SDS011;38714;53.180;5.812;2024-03-22T09:40:53;6.43;;;3.63;;
52848;SDS011;38714;53.180;5.812;2024-03-22T09:43:20;5.85;;;3.17;;
52848;SDS011;38714;53.180;5.812;2024-03-22T09:45:47;7.38;;;4.75;;
52848;SDS011;38714;53.180;5.812;2024-03-22T09:48:14;5.25;;;3.10;;
52848;SDS011;38714;53.180;5.812;2024-03-22T09:50:42;5.93;;;3.40;;
52848;SDS011;38714;53.180;5.812;2024-03-22T09:53:07;10.35;;;3.88;;
52848;SDS011;38714;53.180;5.812;2024-03-22T09:55:34;14.65;;;3.50;;
52848;SDS011;38714;53.180;5.812;2024-03-22T09:58:02;11.02;;;3.45;;
52848;SDS011;38714;53.180;5.812;2024-03-22T10:00:28;9.32;;;3.65;;
52848;SDS011;38714;53.180;5.812;2024-03-22T10:02:56;7.93;;;3.53;;
52848;SDS011;38714;53.180;5.812;2024-03-22T10:05:23;8.45;;;2.85;;
52848;SDS011;38714;53.180;5.812;2024-03-22T10:07:49;3.20;;;2.63;;
52848;SDS011;38714;53.180;5.812;2024-03-22T10:10:15;7.18;;;3.50;;
52848;SDS011;38714;53.180;5.812;2024-03-22T10:12:41;4.40;;;1.92;;
52848;SDS011;38714;53.180;5.812;2024-03-22T10:15:07;2.00;;;1.77;;
52848;SDS011;38714;53.180;5.812;2024-03-22T10:17:38;5.22;;;2.17;;
52848;SDS011;38714;53.180;5.812;2024-03-22T10:20:04;4.95;;;2.63;;
52848;SDS011;38714;53.180;5.812;2024-03-22T10:22:37;7.80;;;2.95;;
52848;SDS011;38714;53.180;5.812;2024-03-22T10:25:06;3.58;;;1.63;;
52848;SDS011;38714;53.180;5.812;2024-03-22T10:27:32;3.40;;;2.20;;
52848;SDS011;38714;53.180;5.812;2024-03-22T10:29:57;2.95;;;1.90;;
52848;SDS011;38714;53.180;5.812;2024-03-22T10:32:26;2.70;;;1.58;;
52848;SDS011;38714;53.180;5.812;2024-03-22T10:34:53;1.85;;;1.70;;
52848;SDS011;38714;53.180;5.812;2024-03-22T10:37:19;5.63;;;1.90;;
52848;SDS011;38714;53.180;5.812;2024-03-22T10:39:46;2.00;;;1.08;;
52848;SDS011;38714;53.180;5.812;2024-03-22T10:42:15;3.40;;;1.60;;
52848;SDS011;38714;53.180;5.812;2024-03-22T10:44:41;5.57;;;1.67;;
52848;SDS011;38714;53.180;5.812;2024-03-22T10:47:08;4.85;;;1.88;;
52848;SDS011;38714;53.180;5.812;2024-03-22T10:49:37;5.75;;;2.35;;
52848;SDS011;38714;53.180;5.812;2024-03-22T10:52:03;4.70;;;1.33;;
52848;SDS011;38714;53.180;5.812;2024-03-22T10:54:35;4.97;;;2.45;;
52848;SDS011;38714;53.180;5.812;2024-03-22T10:57:05;5.57;;;1.70;;
52848;SDS011;38714;53.180;5.812;2024-03-22T10:59:34;5.60;;;1.98;;
52848;SDS011;38714;53.180;5.812;2024-03-22T11:02:03;4.38;;;1.80;;
52848;SDS011;38714;53.180;5.812;2024-03-22T11:04:32;4.78;;;1.58;;
52848;SDS011;38714;53.180;5.812;2024-03-22T11:06:57;4.68;;;1.70;;
52848;SDS011;38714;53.180;5.812;2024-03-22T11:09:25;3.47;;;1.25;;
52848;SDS011;38714;53.180;5.812;2024-03-22T11:11:52;4.55;;;2.15;;
52848;SDS011;38714;53.180;5.812;2024-03-22T11:14:18;3.70;;;1.70;;
52848;SDS011;38714;53.180;5.812;2024-03-22T11:16:49;6.05;;;1.50;;
52848;SDS011;38714;53.180;5.812;2024-03-22T11:19:15;2.15;;;1.48;;
52848;SDS011;38714;53.180;5.812;2024-03-22T11:21:41;3.38;;;1.80;;
52848;SDS011;38714;53.180;5.812;2024-03-22T11:24:06;2.95;;;1.83;;
52848;SDS011;38714;53.180;5.812;2024-03-22T11:26:32;7.40;;;2.55;;
52848;SDS011;38714;53.180;5.812;2024-03-22T11:28:59;2.72;;;1.58;;
52848;SDS011;38714;53.180;5.812;2024-03-22T11:31:24;6.43;;;2.03;;
52848;SDS011;38714;53.180;5.812;2024-03-22T11:33:55;4.03;;;1.70;;
52848;SDS011;38714;53.180;5.812;2024-03-22T11:36:24;7.35;;;1.98;;
52848;SDS011;38714;53.180;5.812;2024-03-22T11:38:50;9.32;;;1.90;;
52848;SDS011;38714;53.180;5.812;2024-03-22T11:41:18;4.28;;;1.95;;
52848;SDS011;38714;53.180;5.812;2024-03-22T11:43:52;6.32;;;2.60;;
52848;SDS011;38714;53.180;5.812;2024-03-22T11:46:19;3.90;;;1.70;;
52848;SDS011;38714;53.180;5.812;2024-03-22T11:48:50;3.58;;;1.63;;
52848;SDS011;38714;53.180;5.812;2024-03-22T11:51:16;4.88;;;2.13;;
52848;SDS011;38714;53.180;5.812;2024-03-22T11:53:48;6.18;;;2.30;;
52848;SDS011;38714;53.180;5.812;2024-03-22T11:56:17;5.35;;;2.28;;
52848;SDS011;38714;53.180;5.812;2024-03-22T11:58:45;3.65;;;1.60;;
52848;SDS011;38714;53.180;5.812;2024-03-22T12:01:12;8.32;;;2.22;;
52848;SDS011;38714;53.180;5.812;2024-03-22T12:03:38;6.43;;;2.50;;
52848;SDS011;38714;53.180;5.812;2024-03-22T12:06:05;7.25;;;2.45;;
52848;SDS011;38714;53.180;5.812;2024-03-22T12:08:31;7.82;;;2.13;;
52848;SDS011;38714;53.180;5.812;2024-03-22T12:10:56;4.03;;;1.80;;
52848;SDS011;38714;53.180;5.812;2024-03-22T12:13:22;2.97;;;2.08;;
52848;SDS011;38714;53.180;5.812;2024-03-22T12:15:47;5.72;;;2.60;;
52848;SDS011;38714;53.180;5.812;2024-03-22T12:18:14;9.10;;;2.00;;
52848;SDS011;38714;53.180;5.812;2024-03-22T12:20:39;5.15;;;1.85;;
52848;SDS011;38714;53.180;5.812;2024-03-22T12:23:05;3.55;;;1.88;;
52848;SDS011;38714;53.180;5.812;2024-03-22T12:25:30;4.07;;;2.38;;
52848;SDS011;38714;53.180;5.812;2024-03-22T12:27:56;5.20;;;2.40;;
52848;SDS011;38714;53.180;5.812;2024-03-22T12:30:21;7.68;;;3.13;;
52848;SDS011;38714;53.180;5.812;2024-03-22T12:32:47;3.78;;;1.83;;
52848;SDS011;38714;53.180;5.812;2024-03-22T12:35:12;8.20;;;2.80;;
52848;SDS011;38714;53.180;5.812;2024-03-22T12:37:38;8.63;;;3.22;;
52848;SDS011;38714;53.180;5.812;2024-03-22T12:40:04;5.32;;;2.40;;
52848;SDS011;38714;53.180;5.812;2024-03-22T12:42:33;8.77;;;1.83;;
52848;SDS011;38714;53.180;5.812;2024-03-22T12:44:59;9.85;;;2.65;;
52848;SDS011;38714;53.180;5.812;2024-03-22T12:47:24;9.38;;;2.83;;
52848;SDS011;38714;53.180;5.812;2024-03-22T12:49:50;14.45;;;3.63;;
52848;SDS011;38714;53.180;5.812;2024-03-22T12:52:16;6.13;;;3.10;;
52848;SDS011;38714;53.180;5.812;2024-03-22T12:54:42;4.32;;;2.10;;
52848;SDS011;38714;53.180;5.812;2024-03-22T12:57:07;6.70;;;1.67;;
52848;SDS011;38714;53.180;5.812;2024-03-22T12:59:33;5.32;;;2.10;;
52848;SDS011;38714;53.180;5.812;2024-03-22T13:01:59;6.60;;;2.72;;
52848;SDS011;38714;53.180;5.812;2024-03-22T13:04:26;6.90;;;2.03;;
52848;SDS011;38714;53.180;5.812;2024-03-22T13:06:52;7.35;;;2.97;;
52848;SDS011;38714;53.180;5.812;2024-03-22T13:09:18;7.53;;;1.85;;
52848;SDS011;38714;53.180;5.812;2024-03-22T13:11:46;7.70;;;1.45;;
52848;SDS011;38714;53.180;5.812;2024-03-22T13:14:13;9.40;;;2.25;;
52848;SDS011;38714;53.180;5.812;2024-03-22T13:16:39;7.20;;;4.50;;
52848;SDS011;38714;53.180;5.812;2024-03-22T13:19:05;8.05;;;2.28;;
52848;SDS011;38714;53.180;5.812;2024-03-22T13:21:33;6.75;;;1.92;;
52848;SDS011;38714;53.180;5.812;2024-03-22T13:23:59;5.18;;;2.13;;
52848;SDS011;38714;53.180;5.812;2024-03-22T13:26:24;7.35;;;2.38;;
52848;SDS011;38714;53.180;5.812;2024-03-22T13:28:50;3.70;;;2.03;;
52848;SDS011;38714;53.180;5.812;2024-03-22T13:31:16;5.38;;;2.38;;
52848;SDS011;38714;53.180;5.812;2024-03-22T13:33:42;18.63;;;2.72;;
52848;SDS011;38714;53.180;5.812;2024-03-22T13:36:07;15.98;;;2.35;;
52848;SDS011;38714;53.180;5.812;2024-03-22T13:38:33;4.30;;;1.58;;
52848;SDS011;38714;53.180;5.812;2024-03-22T13:40:59;8.02;;;1.92;;
52848;SDS011;38714;53.180;5.812;2024-03-22T13:43:29;6.25;;;2.30;;
52848;SDS011;38714;53.180;5.812;2024-03-22T13:45:54;5.03;;;2.58;;
52848;SDS011;38714;53.180;5.812;2024-03-22T13:48:21;11.85;;;3.53;;
52848;SDS011;38714;53.180;5.812;2024-03-22T13:50:56;8.80;;;2.25;;
52848;SDS011;38714;53.180;5.812;2024-03-22T13:53:22;8.73;;;2.35;;
52848;SDS011;38714;53.180;5.812;2024-03-22T13:55:48;6.53;;;2.42;;
52848;SDS011;38714;53.180;5.812;2024-03-22T13:58:18;7.13;;;2.50;;
52848;SDS011;38714;53.180;5.812;2024-03-22T14:00:43;9.80;;;3.28;;
52848;SDS011;38714;53.180;5.812;2024-03-22T14:03:09;5.05;;;1.80;;
52848;SDS011;38714;53.180;5.812;2024-03-22T14:05:35;7.20;;;2.90;;
52848;SDS011;38714;53.180;5.812;2024-03-22T14:08:00;2.72;;;1.40;;
52848;SDS011;38714;53.180;5.812;2024-03-22T14:10:26;4.13;;;1.88;;
52848;SDS011;38714;53.180;5.812;2024-03-22T14:12:53;8.93;;;2.60;;
52848;SDS011;38714;53.180;5.812;2024-03-22T14:15:18;5.30;;;2.65;;
52848;SDS011;38714;53.180;5.812;2024-03-22T14:17:44;11.05;;;2.20;;
52848;SDS011;38714;53.180;5.812;2024-03-22T14:20:10;3.45;;;1.83;;
52848;SDS011;38714;53.180;5.812;2024-03-22T14:22:39;5.93;;;2.85;;
52848;SDS011;38714;53.180;5.812;2024-03-22T14:25:05;9.43;;;2.47;;
52848;SDS011;38714;53.180;5.812;2024-03-22T14:27:32;8.82;;;2.28;;
52848;SDS011;38714;53.180;5.812;2024-03-22T14:29:58;4.50;;;1.73;;